sensor_id;sensor_type;location;lat;lon;timestamp;P1;durP1;ratioP1;P2;durP2;ratioP2
13463;SDS011;6804;48.774;9.174;2023-04-30T00:01:36;7.57;;;5.17;;
13463;SDS011;6804;48.774;9.174;2023-04-30T00:04:07;5.07;;;4.37;;
13463;SDS011;6804;48.774;9.174;2023-04-30T00:06:39;5.23;;;4.73;;
13463;SDS011;6804;48.774;9.174;2023-04-30T00:09:09;4.87;;;4.30;;
13463;SDS011;6804;48.774;9.174;2023-04-30T00:11:37;5.57;;;5.07;;
13463;SDS011;6804;48.774;9.174;2023-04-30T00:14:06;6.23;;;4.73;;
13463;SDS011;6804;48.774;9.174;2023-04-30T00:16:34;5.87;;;5.10;;
13463;SDS011;6804;48.774;9.174;2023-04-30T00:19:05;6.37;;;5.17;;
13463;SDS011;6804;48.774;9.174;2023-04-30T00:21:36;8.13;;;6.83;;
13463;SDS011;6804;48.774;9.174;2023-04-30T00:24:08;7.77;;;6.40;;
13463;SDS011;6804;48.774;9.174;2023-04-30T00:26:36;4.80;;;4.30;;
13463;SDS011;6804;48.774;9.174;2023-04-30T00:29:04;5.10;;;4.57;;
13463;SDS011;6804;48.774;9.174;2023-04-30T00:31:35;6.17;;;4.50;;
13463;SDS011;6804;48.774;9.174;2023-04-30T00:34:04;6.53;;;5.40;;
13463;SDS011;6804;48.774;9.174;2023-04-30T00:36:35;6.07;;;5.27;;
13463;SDS011;6804;48.774;9.174;2023-04-30T00:39:03;6.30;;;5.27;;
13463;SDS011;6804;48.774;9.174;2023-04-30T00:41:38;21.83;;;14.80;;
13463;SDS011;6804;48.774;9.174;2023-04-30T00:44:07;15.80;;;11.60;;
13463;SDS011;6804;48.774;9.174;2023-04-30T00:46:35;8.83;;;7.30;;
13463;SDS011;6804;48.774;9.174;2023-04-30T00:49:02;8.23;;;6.40;;
13463;SDS011;6804;48.774;9.174;2023-04-30T00:51:33;6.37;;;4.73;;
13463;SDS011;6804;48.774;9.174;2023-04-30T00:54:06;6.90;;;5.27;;
13463;SDS011;6804;48.774;9.174;2023-04-30T00:56:39;5.80;;;5.20;;
13463;SDS011;6804;48.774;9.174;2023-04-30T00:59:08;5.60;;;4.93;;
13463;SDS011;6804;48.774;9.174;2023-04-30T01:01:39;5.87;;;5.23;;
13463;SDS011;6804;48.774;9.174;2023-04-30T01:04:07;7.20;;;5.83;;
13463;SDS011;6804;48.774;9.174;2023-04-30T01:06:37;6.73;;;5.83;;
13463;SDS011;6804;48.774;9.174;2023-04-30T01:09:06;6.40;;;5.40;;
13463;SDS011;6804;48.774;9.174;2023-04-30T01:11:39;5.97;;;5.37;;
13463;SDS011;6804;48.774;9.174;2023-04-30T01:14:24;6.47;;;5.40;;
13463;SDS011;6804;48.774;9.174;2023-04-30T01:16:58;6.90;;;6.20;;
13463;SDS011;6804;48.774;9.174;2023-04-30T01:19:35;9.00;;;6.50;;
13463;SDS011;6804;48.774;9.174;2023-04-30T01:22:13;7.30;;;6.47;;
13463;SDS011;6804;48.774;9.174;2023-04-30T01:25:00;7.73;;;6.67;;
13463;SDS011;6804;48.774;9.174;2023-04-30T01:27:59;7.17;;;6.47;;
13463;SDS011;6804;48.774;9.174;2023-04-30T01:30:29;8.40;;;7.10;;
13463;SDS011;6804;48.774;9.174;2023-04-30T01:32:58;6.73;;;5.97;;
13463;SDS011;6804;48.774;9.174;2023-04-30T01:35:30;6.07;;;5.33;;
13463;SDS011;6804;48.774;9.174;2023-04-30T01:38:26;8.50;;;6.77;;
13463;SDS011;6804;48.774;9.174;2023-04-30T01:41:02;7.17;;;6.47;;
13463;SDS011;6804;48.774;9.174;2023-04-30T01:43:43;7.77;;;6.07;;
13463;SDS011;6804;48.774;9.174;2023-04-30T01:46:23;7.53;;;6.60;;
13463;SDS011;6804;48.774;9.174;2023-04-30T01:49:00;7.80;;;6.40;;
13463;SDS011;6804;48.774;9.174;2023-04-30T01:51:36;7.30;;;6.57;;
13463;SDS011;6804;48.774;9.174;2023-04-30T01:54:15;7.63;;;6.83;;
13463;SDS011;6804;48.774;9.174;2023-04-30T01:56:51;7.60;;;6.10;;
13463;SDS011;6804;48.774;9.174;2023-04-30T01:59:30;6.73;;;6.00;;
13463;SDS011;6804;48.774;9.174;2023-04-30T02:02:00;7.90;;;6.03;;
13463;SDS011;6804;48.774;9.174;2023-04-30T02:04:27;7.67;;;6.00;;
13463;SDS011;6804;48.774;9.174;2023-04-30T02:06:55;8.07;;;6.80;;
13463;SDS011;6804;48.774;9.174;2023-04-30T02:09:25;8.17;;;6.23;;
13463;SDS011;6804;48.774;9.174;2023-04-30T02:11:52;7.33;;;6.57;;
13463;SDS011;6804;48.774;9.174;2023-04-30T02:14:22;8.23;;;7.17;;
13463;SDS011;6804;48.774;9.174;2023-04-30T02:16:50;7.97;;;7.07;;
13463;SDS011;6804;48.774;9.174;2023-04-30T02:19:21;14.67;;;11.13;;
13463;SDS011;6804;48.774;9.174;2023-04-30T02:21:48;13.37;;;10.70;;
13463;SDS011;6804;48.774;9.174;2023-04-30T02:24:16;8.60;;;7.47;;
13463;SDS011;6804;48.774;9.174;2023-04-30T02:26:45;8.40;;;7.50;;
13463;SDS011;6804;48.774;9.174;2023-04-30T02:29:12;8.77;;;7.27;;
13463;SDS011;6804;48.774;9.174;2023-04-30T02:31:40;8.13;;;7.33;;
13463;SDS011;6804;48.774;9.174;2023-04-30T02:37:08;8.50;;;6.87;;
13463;SDS011;6804;48.774;9.174;2023-04-30T02:39:35;8.40;;;7.07;;
13463;SDS011;6804;48.774;9.174;2023-04-30T02:42:02;9.33;;;7.97;;
13463;SDS011;6804;48.774;9.174;2023-04-30T02:44:33;8.17;;;7.37;;
13463;SDS011;6804;48.774;9.174;2023-04-30T02:47:01;10.00;;;7.73;;
13463;SDS011;6804;48.774;9.174;2023-04-30T02:49:34;8.67;;;7.77;;
13463;SDS011;6804;48.774;9.174;2023-04-30T02:52:04;8.87;;;7.97;;
13463;SDS011;6804;48.774;9.174;2023-04-30T02:54:35;8.93;;;7.93;;
13463;SDS011;6804;48.774;9.174;2023-04-30T02:57:03;8.57;;;7.53;;
13463;SDS011;6804;48.774;9.174;2023-04-30T02:59:37;10.37;;;8.60;;
13463;SDS011;6804;48.774;9.174;2023-04-30T03:02:04;13.30;;;9.67;;
13463;SDS011;6804;48.774;9.174;2023-04-30T03:04:32;9.90;;;8.27;;
13463;SDS011;6804;48.774;9.174;2023-04-30T03:07:00;8.87;;;7.97;;
13463;SDS011;6804;48.774;9.174;2023-04-30T03:09:28;9.47;;;7.33;;
13463;SDS011;6804;48.774;9.174;2023-04-30T03:11:58;9.43;;;8.03;;
13463;SDS011;6804;48.774;9.174;2023-04-30T03:14:26;8.50;;;7.63;;
13463;SDS011;6804;48.774;9.174;2023-04-30T03:16:57;10.30;;;7.57;;
13463;SDS011;6804;48.774;9.174;2023-04-30T03:19:27;9.37;;;7.97;;
13463;SDS011;6804;48.774;9.174;2023-04-30T03:21:54;11.27;;;9.50;;
13463;SDS011;6804;48.774;9.174;2023-04-30T03:24:27;10.77;;;8.67;;
13463;SDS011;6804;48.774;9.174;2023-04-30T03:26:55;9.30;;;8.40;;
13463;SDS011;6804;48.774;9.174;2023-04-30T03:29:24;9.33;;;8.07;;
13463;SDS011;6804;48.774;9.174;2023-04-30T03:31:51;9.17;;;8.23;;
13463;SDS011;6804;48.774;9.174;2023-04-30T03:34:28;9.93;;;8.57;;
13463;SDS011;6804;48.774;9.174;2023-04-30T03:36:56;10.53;;;7.57;;
13463;SDS011;6804;48.774;9.174;2023-04-30T03:39:26;8.40;;;7.50;;
13463;SDS011;6804;48.774;9.174;2023-04-30T03:41:53;8.87;;;8.00;;
13463;SDS011;6804;48.774;9.174;2023-04-30T03:44:21;8.00;;;7.20;;
13463;SDS011;6804;48.774;9.174;2023-04-30T03:46:53;8.80;;;7.67;;
13463;SDS011;6804;48.774;9.174;2023-04-30T03:49:24;8.33;;;7.27;;
13463;SDS011;6804;48.774;9.174;2023-04-30T03:51:51;11.33;;;8.47;;
13463;SDS011;6804;48.774;9.174;2023-04-30T03:54:19;9.20;;;7.90;;
13463;SDS011;6804;48.774;9.174;2023-04-30T03:56:47;8.27;;;7.40;;
13463;SDS011;6804;48.774;9.174;2023-04-30T03:59:15;8.67;;;7.77;;
13463;SDS011;6804;48.774;9.174;2023-04-30T04:01:46;10.07;;;8.40;;
13463;SDS011;6804;48.774;9.174;2023-04-30T04:04:14;8.87;;;7.77;;
13463;SDS011;6804;48.774;9.174;2023-04-30T04:06:43;10.37;;;8.47;;
13463;SDS011;6804;48.774;9.174;2023-04-30T04:09:14;9.23;;;7.87;;
13463;SDS011;6804;48.774;9.174;2023-04-30T04:11:41;12.93;;;10.03;;
13463;SDS011;6804;48.774;9.174;2023-04-30T04:14:11;10.43;;;8.57;;
13463;SDS011;6804;48.774;9.174;2023-04-30T04:16:41;15.57;;;11.27;;
13463;SDS011;6804;48.774;9.174;2023-04-30T04:19:10;11.80;;;8.77;;
13463;SDS011;6804;48.774;9.174;2023-04-30T04:21:38;10.40;;;9.03;;
13463;SDS011;6804;48.774;9.174;2023-04-30T04:24:05;11.17;;;9.27;;
13463;SDS011;6804;48.774;9.174;2023-04-30T04:26:38;10.27;;;8.00;;
13463;SDS011;6804;48.774;9.174;2023-04-30T04:29:05;13.43;;;9.73;;
13463;SDS011;6804;48.774;9.174;2023-04-30T04:31:33;12.47;;;9.87;;
13463;SDS011;6804;48.774;9.174;2023-04-30T04:34:05;9.77;;;8.47;;
13463;SDS011;6804;48.774;9.174;2023-04-30T04:36:34;9.33;;;8.43;;
13463;SDS011;6804;48.774;9.174;2023-04-30T04:39:05;12.87;;;9.30;;
13463;SDS011;6804;48.774;9.174;2023-04-30T04:41:33;10.07;;;8.03;;
13463;SDS011;6804;48.774;9.174;2023-04-30T04:44:08;11.10;;;9.27;;
13463;SDS011;6804;48.774;9.174;2023-04-30T04:46:35;9.93;;;7.70;;
13463;SDS011;6804;48.774;9.174;2023-04-30T04:49:06;9.90;;;8.20;;
13463;SDS011;6804;48.774;9.174;2023-04-30T04:51:44;10.57;;;8.13;;
13463;SDS011;6804;48.774;9.174;2023-04-30T04:54:13;11.73;;;9.27;;
13463;SDS011;6804;48.774;9.174;2023-04-30T04:56:46;12.37;;;9.70;;
13463;SDS011;6804;48.774;9.174;2023-04-30T04:59:15;13.13;;;10.63;;
13463;SDS011;6804;48.774;9.174;2023-04-30T05:01:43;12.93;;;9.50;;
13463;SDS011;6804;48.774;9.174;2023-04-30T05:04:13;12.33;;;9.67;;
13463;SDS011;6804;48.774;9.174;2023-04-30T05:06:44;10.47;;;8.97;;
13463;SDS011;6804;48.774;9.174;2023-04-30T05:09:12;12.73;;;10.30;;
13463;SDS011;6804;48.774;9.174;2023-04-30T05:11:44;10.00;;;8.37;;
13463;SDS011;6804;48.774;9.174;2023-04-30T05:14:14;11.27;;;9.87;;
13463;SDS011;6804;48.774;9.174;2023-04-30T05:16:45;12.23;;;9.47;;
13463;SDS011;6804;48.774;9.174;2023-04-30T05:19:16;10.30;;;8.60;;
13463;SDS011;6804;48.774;9.174;2023-04-30T05:21:50;10.43;;;9.17;;
13463;SDS011;6804;48.774;9.174;2023-04-30T05:24:17;12.47;;;9.87;;
13463;SDS011;6804;48.774;9.174;2023-04-30T05:26:45;10.60;;;8.33;;
13463;SDS011;6804;48.774;9.174;2023-04-30T05:29:20;9.73;;;7.53;;
13463;SDS011;6804;48.774;9.174;2023-04-30T05:31:50;9.27;;;7.50;;
13463;SDS011;6804;48.774;9.174;2023-04-30T05:34:18;11.30;;;8.13;;
13463;SDS011;6804;48.774;9.174;2023-04-30T05:36:45;9.07;;;7.67;;
13463;SDS011;6804;48.774;9.174;2023-04-30T05:39:19;9.47;;;7.93;;
13463;SDS011;6804;48.774;9.174;2023-04-30T05:41:47;8.47;;;7.13;;
13463;SDS011;6804;48.774;9.174;2023-04-30T05:44:15;8.10;;;7.30;;
13463;SDS011;6804;48.774;9.174;2023-04-30T05:46:45;9.27;;;7.83;;
13463;SDS011;6804;48.774;9.174;2023-04-30T05:49:15;8.07;;;7.27;;
13463;SDS011;6804;48.774;9.174;2023-04-30T05:51:42;8.60;;;7.47;;
13463;SDS011;6804;48.774;9.174;2023-04-30T05:54:09;8.70;;;7.80;;
13463;SDS011;6804;48.774;9.174;2023-04-30T05:56:39;8.97;;;8.07;;
13463;SDS011;6804;48.774;9.174;2023-04-30T05:59:07;9.53;;;8.07;;
13463;SDS011;6804;48.774;9.174;2023-04-30T06:01:34;8.10;;;7.30;;
13463;SDS011;6804;48.774;9.174;2023-04-30T06:04:07;7.73;;;6.93;;
13463;SDS011;6804;48.774;9.174;2023-04-30T06:06:35;9.27;;;7.83;;
13463;SDS011;6804;48.774;9.174;2023-04-30T06:09:04;9.53;;;8.40;;
13463;SDS011;6804;48.774;9.174;2023-04-30T06:11:35;9.07;;;7.93;;
13463;SDS011;6804;48.774;9.174;2023-04-30T06:14:09;8.93;;;7.13;;
13463;SDS011;6804;48.774;9.174;2023-04-30T06:16:39;8.03;;;7.27;;
13463;SDS011;6804;48.774;9.174;2023-04-30T06:19:09;7.93;;;7.13;;
13463;SDS011;6804;48.774;9.174;2023-04-30T06:21:37;8.50;;;7.60;;
13463;SDS011;6804;48.774;9.174;2023-04-30T06:24:08;8.00;;;7.20;;
13463;SDS011;6804;48.774;9.174;2023-04-30T06:26:36;8.87;;;7.97;;
13463;SDS011;6804;48.774;9.174;2023-04-30T06:29:07;9.73;;;8.73;;
13463;SDS011;6804;48.774;9.174;2023-04-30T06:31:40;10.80;;;8.23;;
13463;SDS011;6804;48.774;9.174;2023-04-30T06:34:10;8.97;;;7.10;;
13463;SDS011;6804;48.774;9.174;2023-04-30T06:36:37;7.60;;;6.80;;
13463;SDS011;6804;48.774;9.174;2023-04-30T06:39:05;8.60;;;7.27;;
13463;SDS011;6804;48.774;9.174;2023-04-30T06:41:35;7.43;;;6.73;;
13463;SDS011;6804;48.774;9.174;2023-04-30T06:44:02;8.03;;;7.23;;
13463;SDS011;6804;48.774;9.174;2023-04-30T06:46:31;8.13;;;7.33;;
13463;SDS011;6804;48.774;9.174;2023-04-30T06:48:58;7.93;;;7.13;;
13463;SDS011;6804;48.774;9.174;2023-04-30T06:51:26;8.33;;;7.27;;
13463;SDS011;6804;48.774;9.174;2023-04-30T06:53:53;7.47;;;6.77;;
13463;SDS011;6804;48.774;9.174;2023-04-30T06:56:21;9.87;;;7.17;;
13463;SDS011;6804;48.774;9.174;2023-04-30T06:58:49;9.23;;;8.00;;
13463;SDS011;6804;48.774;9.174;2023-04-30T07:01:19;8.13;;;7.37;;
13463;SDS011;6804;48.774;9.174;2023-04-30T07:03:50;9.97;;;7.60;;
13463;SDS011;6804;48.774;9.174;2023-04-30T07:06:21;8.63;;;7.73;;
13463;SDS011;6804;48.774;9.174;2023-04-30T07:08:49;7.50;;;6.70;;
13463;SDS011;6804;48.774;9.174;2023-04-30T07:11:22;8.07;;;6.20;;
13463;SDS011;6804;48.774;9.174;2023-04-30T07:13:49;7.07;;;6.37;;
13463;SDS011;6804;48.774;9.174;2023-04-30T07:16:17;6.57;;;5.93;;
13463;SDS011;6804;48.774;9.174;2023-04-30T07:18:48;6.90;;;6.27;;
13463;SDS011;6804;48.774;9.174;2023-04-30T07:21:22;11.00;;;8.27;;
13463;SDS011;6804;48.774;9.174;2023-04-30T07:23:52;8.23;;;7.43;;
13463;SDS011;6804;48.774;9.174;2023-04-30T07:26:22;11.43;;;8.90;;
13463;SDS011;6804;48.774;9.174;2023-04-30T07:28:50;10.60;;;8.57;;
13463;SDS011;6804;48.774;9.174;2023-04-30T07:31:18;9.13;;;8.20;;
13463;SDS011;6804;48.774;9.174;2023-04-30T07:33:51;10.77;;;8.23;;
13463;SDS011;6804;48.774;9.174;2023-04-30T07:36:20;7.97;;;6.20;;
13463;SDS011;6804;48.774;9.174;2023-04-30T07:38:47;8.33;;;7.53;;
13463;SDS011;6804;48.774;9.174;2023-04-30T07:41:17;8.30;;;7.50;;
13463;SDS011;6804;48.774;9.174;2023-04-30T07:43:51;7.17;;;6.10;;
13463;SDS011;6804;48.774;9.174;2023-04-30T07:46:27;7.20;;;5.80;;
13463;SDS011;6804;48.774;9.174;2023-04-30T07:48:56;7.63;;;6.83;;
13463;SDS011;6804;48.774;9.174;2023-04-30T07:51:24;8.07;;;6.37;;
13463;SDS011;6804;48.774;9.174;2023-04-30T07:53:51;7.43;;;5.90;;
13463;SDS011;6804;48.774;9.174;2023-04-30T07:56:19;8.60;;;6.37;;
13463;SDS011;6804;48.774;9.174;2023-04-30T07:58:46;8.43;;;6.53;;
13463;SDS011;6804;48.774;9.174;2023-04-30T08:01:14;6.10;;;5.50;;
13463;SDS011;6804;48.774;9.174;2023-04-30T08:03:41;6.63;;;5.73;;
13463;SDS011;6804;48.774;9.174;2023-04-30T08:06:15;7.10;;;6.40;;
13463;SDS011;6804;48.774;9.174;2023-04-30T08:08:42;5.67;;;5.17;;
13463;SDS011;6804;48.774;9.174;2023-04-30T08:11:10;5.43;;;4.93;;
13463;SDS011;6804;48.774;9.174;2023-04-30T08:13:37;6.20;;;5.60;;
13463;SDS011;6804;48.774;9.174;2023-04-30T08:16:06;7.27;;;5.80;;
13463;SDS011;6804;48.774;9.174;2023-04-30T08:18:33;5.93;;;5.43;;
13463;SDS011;6804;48.774;9.174;2023-04-30T08:21:03;6.57;;;5.30;;
13463;SDS011;6804;48.774;9.174;2023-04-30T08:23:35;7.63;;;4.93;;
13463;SDS011;6804;48.774;9.174;2023-04-30T08:26:02;6.63;;;5.33;;
13463;SDS011;6804;48.774;9.174;2023-04-30T08:28:35;5.00;;;4.47;;
13463;SDS011;6804;48.774;9.174;2023-04-30T08:31:02;5.73;;;4.90;;
13463;SDS011;6804;48.774;9.174;2023-04-30T08:33:30;5.70;;;4.90;;
13463;SDS011;6804;48.774;9.174;2023-04-30T08:35:57;4.87;;;4.47;;
13463;SDS011;6804;48.774;9.174;2023-04-30T08:38:25;5.23;;;4.50;;
13463;SDS011;6804;48.774;9.174;2023-04-30T08:40:59;4.30;;;3.90;;
13463;SDS011;6804;48.774;9.174;2023-04-30T08:43:34;3.90;;;3.50;;
13463;SDS011;6804;48.774;9.174;2023-04-30T08:46:01;3.80;;;3.50;;
13463;SDS011;6804;48.774;9.174;2023-04-30T08:48:30;4.03;;;3.60;;
13463;SDS011;6804;48.774;9.174;2023-04-30T08:50:58;4.00;;;3.60;;
13463;SDS011;6804;48.774;9.174;2023-04-30T08:53:27;3.53;;;3.23;;
13463;SDS011;6804;48.774;9.174;2023-04-30T08:55:58;3.33;;;3.03;;
13463;SDS011;6804;48.774;9.174;2023-04-30T08:58:30;3.77;;;3.37;;
13463;SDS011;6804;48.774;9.174;2023-04-30T09:01:01;3.80;;;3.03;;
13463;SDS011;6804;48.774;9.174;2023-04-30T09:03:32;3.97;;;2.93;;
13463;SDS011;6804;48.774;9.174;2023-04-30T09:06:00;4.00;;;3.10;;
13463;SDS011;6804;48.774;9.174;2023-04-30T09:08:40;3.83;;;3.47;;
13463;SDS011;6804;48.774;9.174;2023-04-30T09:11:25;3.47;;;3.10;;
13463;SDS011;6804;48.774;9.174;2023-04-30T09:13:57;3.03;;;2.70;;
13463;SDS011;6804;48.774;9.174;2023-04-30T09:16:26;3.43;;;3.00;;
13463;SDS011;6804;48.774;9.174;2023-04-30T09:18:55;3.73;;;2.97;;
13463;SDS011;6804;48.774;9.174;2023-04-30T09:21:32;3.87;;;3.20;;
13463;SDS011;6804;48.774;9.174;2023-04-30T09:24:00;3.37;;;3.07;;
13463;SDS011;6804;48.774;9.174;2023-04-30T09:26:39;5.07;;;3.13;;
13463;SDS011;6804;48.774;9.174;2023-04-30T09:29:06;3.57;;;2.60;;
13463;SDS011;6804;48.774;9.174;2023-04-30T09:31:34;2.80;;;2.60;;
13463;SDS011;6804;48.774;9.174;2023-04-30T09:34:03;3.50;;;2.77;;
13463;SDS011;6804;48.774;9.174;2023-04-30T09:36:31;2.50;;;2.30;;
13463;SDS011;6804;48.774;9.174;2023-04-30T09:39:08;4.73;;;2.67;;
13463;SDS011;6804;48.774;9.174;2023-04-30T09:41:39;3.23;;;2.60;;
13463;SDS011;6804;48.774;9.174;2023-04-30T09:44:07;3.57;;;2.70;;
13463;SDS011;6804;48.774;9.174;2023-04-30T09:46:57;3.43;;;2.50;;
13463;SDS011;6804;48.774;9.174;2023-04-30T09:49:25;3.10;;;2.50;;
13463;SDS011;6804;48.774;9.174;2023-04-30T09:51:53;3.93;;;2.93;;
13463;SDS011;6804;48.774;9.174;2023-04-30T09:54:22;2.47;;;2.10;;
13463;SDS011;6804;48.774;9.174;2023-04-30T09:56:57;2.60;;;2.40;;
13463;SDS011;6804;48.774;9.174;2023-04-30T09:59:29;2.63;;;2.30;;
13463;SDS011;6804;48.774;9.174;2023-04-30T10:01:59;2.80;;;2.60;;
13463;SDS011;6804;48.774;9.174;2023-04-30T10:04:29;2.53;;;2.33;;
13463;SDS011;6804;48.774;9.174;2023-04-30T10:06:59;7.53;;;5.10;;
13463;SDS011;6804;48.774;9.174;2023-04-30T10:09:34;5.30;;;4.50;;
13463;SDS011;6804;48.774;9.174;2023-04-30T10:12:10;3.87;;;2.60;;
13463;SDS011;6804;48.774;9.174;2023-04-30T10:14:42;2.53;;;2.33;;
13463;SDS011;6804;48.774;9.174;2023-04-30T10:17:15;2.40;;;2.20;;
13463;SDS011;6804;48.774;9.174;2023-04-30T10:19:45;2.47;;;2.13;;
13463;SDS011;6804;48.774;9.174;2023-04-30T10:22:14;2.63;;;2.43;;
13463;SDS011;6804;48.774;9.174;2023-04-30T10:24:44;3.00;;;2.80;;
13463;SDS011;6804;48.774;9.174;2023-04-30T10:27:19;2.27;;;2.07;;
13463;SDS011;6804;48.774;9.174;2023-04-30T10:29:48;2.53;;;2.03;;
13463;SDS011;6804;48.774;9.174;2023-04-30T10:32:19;3.07;;;2.30;;
13463;SDS011;6804;48.774;9.174;2023-04-30T10:34:49;2.60;;;2.40;;
13463;SDS011;6804;48.774;9.174;2023-04-30T10:37:33;2.83;;;2.43;;
13463;SDS011;6804;48.774;9.174;2023-04-30T10:40:06;2.57;;;2.37;;
13463;SDS011;6804;48.774;9.174;2023-04-30T10:42:38;3.00;;;2.30;;
13463;SDS011;6804;48.774;9.174;2023-04-30T10:45:14;2.87;;;2.60;;
13463;SDS011;6804;48.774;9.174;2023-04-30T10:48:00;3.13;;;2.80;;
13463;SDS011;6804;48.774;9.174;2023-04-30T10:50:28;2.60;;;2.40;;
13463;SDS011;6804;48.774;9.174;2023-04-30T10:53:00;3.03;;;2.83;;
13463;SDS011;6804;48.774;9.174;2023-04-30T10:55:29;3.30;;;3.00;;
13463;SDS011;6804;48.774;9.174;2023-04-30T10:57:59;11.57;;;9.80;;
13463;SDS011;6804;48.774;9.174;2023-04-30T11:00:29;12.43;;;7.70;;
13463;SDS011;6804;48.774;9.174;2023-04-30T11:03:02;5.30;;;3.60;;
13463;SDS011;6804;48.774;9.174;2023-04-30T11:05:38;3.77;;;3.17;;
13463;SDS011;6804;48.774;9.174;2023-04-30T11:08:10;3.23;;;2.97;;
13463;SDS011;6804;48.774;9.174;2023-04-30T11:10:40;3.23;;;2.67;;
13463;SDS011;6804;48.774;9.174;2023-04-30T11:13:39;5.13;;;3.00;;
13463;SDS011;6804;48.774;9.174;2023-04-30T11:16:10;3.30;;;3.00;;
13463;SDS011;6804;48.774;9.174;2023-04-30T11:18:42;4.40;;;2.90;;
13463;SDS011;6804;48.774;9.174;2023-04-30T11:21:11;3.33;;;3.03;;
13463;SDS011;6804;48.774;9.174;2023-04-30T11:23:48;4.70;;;3.50;;
13463;SDS011;6804;48.774;9.174;2023-04-30T11:26:16;3.10;;;2.67;;
13463;SDS011;6804;48.774;9.174;2023-04-30T11:28:50;3.73;;;2.87;;
13463;SDS011;6804;48.774;9.174;2023-04-30T11:31:22;3.13;;;2.60;;
13463;SDS011;6804;48.774;9.174;2023-04-30T11:33:59;3.77;;;2.70;;
13463;SDS011;6804;48.774;9.174;2023-04-30T11:36:29;3.17;;;2.77;;
13463;SDS011;6804;48.774;9.174;2023-04-30T11:38:58;3.10;;;2.90;;
13463;SDS011;6804;48.774;9.174;2023-04-30T11:41:30;4.80;;;3.50;;
13463;SDS011;6804;48.774;9.174;2023-04-30T11:44:02;3.47;;;3.17;;
13463;SDS011;6804;48.774;9.174;2023-04-30T11:46:34;4.73;;;3.57;;
13463;SDS011;6804;48.774;9.174;2023-04-30T11:49:01;11.07;;;8.23;;
13463;SDS011;6804;48.774;9.174;2023-04-30T11:51:35;5.63;;;4.50;;
13463;SDS011;6804;48.774;9.174;2023-04-30T11:54:06;4.87;;;4.37;;
13463;SDS011;6804;48.774;9.174;2023-04-30T11:56:37;5.13;;;3.73;;
13463;SDS011;6804;48.774;9.174;2023-04-30T11:59:10;5.43;;;3.50;;
13463;SDS011;6804;48.774;9.174;2023-04-30T12:01:39;4.30;;;3.90;;
13463;SDS011;6804;48.774;9.174;2023-04-30T12:04:10;3.93;;;3.10;;
13463;SDS011;6804;48.774;9.174;2023-04-30T12:06:40;4.07;;;2.90;;
13463;SDS011;6804;48.774;9.174;2023-04-30T12:09:08;6.97;;;4.07;;
13463;SDS011;6804;48.774;9.174;2023-04-30T12:11:38;3.60;;;3.23;;
13463;SDS011;6804;48.774;9.174;2023-04-30T12:14:10;3.47;;;3.10;;
13463;SDS011;6804;48.774;9.174;2023-04-30T12:16:40;4.97;;;3.03;;
13463;SDS011;6804;48.774;9.174;2023-04-30T12:19:10;3.87;;;3.00;;
13463;SDS011;6804;48.774;9.174;2023-04-30T12:21:41;3.10;;;2.80;;
13463;SDS011;6804;48.774;9.174;2023-04-30T12:24:10;3.20;;;2.23;;
13463;SDS011;6804;48.774;9.174;2023-04-30T12:26:41;3.67;;;3.30;;
13463;SDS011;6804;48.774;9.174;2023-04-30T12:29:09;3.73;;;3.10;;
13463;SDS011;6804;48.774;9.174;2023-04-30T12:31:43;8.57;;;6.20;;
13463;SDS011;6804;48.774;9.174;2023-04-30T12:34:15;4.70;;;3.63;;
13463;SDS011;6804;48.774;9.174;2023-04-30T12:36:43;4.97;;;3.50;;
13463;SDS011;6804;48.774;9.174;2023-04-30T12:39:11;3.00;;;2.80;;
13463;SDS011;6804;48.774;9.174;2023-04-30T12:41:40;3.50;;;3.20;;
13463;SDS011;6804;48.774;9.174;2023-04-30T12:44:19;9.87;;;7.70;;
13463;SDS011;6804;48.774;9.174;2023-04-30T12:46:50;4.67;;;3.83;;
13463;SDS011;6804;48.774;9.174;2023-04-30T12:49:23;3.13;;;2.77;;
13463;SDS011;6804;48.774;9.174;2023-04-30T12:51:56;3.00;;;2.33;;
13463;SDS011;6804;48.774;9.174;2023-04-30T12:54:29;5.13;;;2.90;;
13463;SDS011;6804;48.774;9.174;2023-04-30T12:56:59;12.67;;;8.50;;
13463;SDS011;6804;48.774;9.174;2023-04-30T12:59:32;5.10;;;3.57;;
13463;SDS011;6804;48.774;9.174;2023-04-30T13:02:06;6.10;;;5.20;;
13463;SDS011;6804;48.774;9.174;2023-04-30T13:04:38;4.50;;;3.73;;
13463;SDS011;6804;48.774;9.174;2023-04-30T13:07:07;4.87;;;3.87;;
13463;SDS011;6804;48.774;9.174;2023-04-30T13:09:35;3.90;;;2.70;;
13463;SDS011;6804;48.774;9.174;2023-04-30T13:12:04;3.90;;;3.40;;
13463;SDS011;6804;48.774;9.174;2023-04-30T13:14:33;3.50;;;3.20;;
13463;SDS011;6804;48.774;9.174;2023-04-30T13:17:01;4.60;;;3.30;;
13463;SDS011;6804;48.774;9.174;2023-04-30T13:19:31;5.27;;;3.10;;
13463;SDS011;6804;48.774;9.174;2023-04-30T13:21:59;4.53;;;4.13;;
13463;SDS011;6804;48.774;9.174;2023-04-30T13:24:30;4.87;;;3.87;;
13463;SDS011;6804;48.774;9.174;2023-04-30T13:27:00;3.77;;;3.17;;
13463;SDS011;6804;48.774;9.174;2023-04-30T13:29:28;9.80;;;6.63;;
13463;SDS011;6804;48.774;9.174;2023-04-30T13:32:03;7.60;;;4.80;;
13463;SDS011;6804;48.774;9.174;2023-04-30T13:34:34;4.80;;;3.70;;
13463;SDS011;6804;48.774;9.174;2023-04-30T13:37:01;4.83;;;2.77;;
13463;SDS011;6804;48.774;9.174;2023-04-30T13:39:29;2.80;;;2.60;;
13463;SDS011;6804;48.774;9.174;2023-04-30T13:42:03;3.83;;;2.33;;
13463;SDS011;6804;48.774;9.174;2023-04-30T13:44:32;2.77;;;2.50;;
13463;SDS011;6804;48.774;9.174;2023-04-30T13:47:03;4.40;;;3.53;;
13463;SDS011;6804;48.774;9.174;2023-04-30T13:49:33;4.80;;;3.80;;
13463;SDS011;6804;48.774;9.174;2023-04-30T13:52:04;4.43;;;4.03;;
13463;SDS011;6804;48.774;9.174;2023-04-30T13:54:31;13.47;;;7.97;;
13463;SDS011;6804;48.774;9.174;2023-04-30T13:57:04;3.50;;;3.20;;
13463;SDS011;6804;48.774;9.174;2023-04-30T13:59:36;4.17;;;3.70;;
13463;SDS011;6804;48.774;9.174;2023-04-30T14:02:04;4.40;;;2.70;;
13463;SDS011;6804;48.774;9.174;2023-04-30T14:04:34;3.30;;;2.40;;
13463;SDS011;6804;48.774;9.174;2023-04-30T14:07:05;4.60;;;2.70;;
13463;SDS011;6804;48.774;9.174;2023-04-30T14:09:33;3.40;;;2.60;;
13463;SDS011;6804;48.774;9.174;2023-04-30T14:12:01;5.17;;;3.17;;
13463;SDS011;6804;48.774;9.174;2023-04-30T14:14:31;4.30;;;3.53;;
13463;SDS011;6804;48.774;9.174;2023-04-30T14:17:03;4.83;;;2.70;;
13463;SDS011;6804;48.774;9.174;2023-04-30T14:19:33;11.20;;;7.70;;
13463;SDS011;6804;48.774;9.174;2023-04-30T14:22:01;5.47;;;4.13;;
13463;SDS011;6804;48.774;9.174;2023-04-30T14:24:34;4.57;;;2.80;;
13463;SDS011;6804;48.774;9.174;2023-04-30T14:27:05;6.13;;;5.20;;
13463;SDS011;6804;48.774;9.174;2023-04-30T14:29:35;4.47;;;3.67;;
13463;SDS011;6804;48.774;9.174;2023-04-30T14:32:04;6.07;;;3.60;;
13463;SDS011;6804;48.774;9.174;2023-04-30T14:34:32;3.40;;;3.10;;
13463;SDS011;6804;48.774;9.174;2023-04-30T14:37:01;5.43;;;2.60;;
13463;SDS011;6804;48.774;9.174;2023-04-30T14:39:31;3.03;;;2.53;;
13463;SDS011;6804;48.774;9.174;2023-04-30T14:41:59;3.50;;;3.20;;
13463;SDS011;6804;48.774;9.174;2023-04-30T14:44:27;15.80;;;10.53;;
13463;SDS011;6804;48.774;9.174;2023-04-30T14:46:56;14.23;;;11.03;;
13463;SDS011;6804;48.774;9.174;2023-04-30T14:49:25;12.37;;;9.00;;
13463;SDS011;6804;48.774;9.174;2023-04-30T14:51:55;6.03;;;4.37;;
13463;SDS011;6804;48.774;9.174;2023-04-30T14:54:23;8.30;;;7.27;;
13463;SDS011;6804;48.774;9.174;2023-04-30T14:56:53;8.70;;;6.13;;
13463;SDS011;6804;48.774;9.174;2023-04-30T14:59:21;2.93;;;2.73;;
13463;SDS011;6804;48.774;9.174;2023-04-30T15:01:51;7.97;;;5.87;;
13463;SDS011;6804;48.774;9.174;2023-04-30T15:04:36;5.17;;;4.07;;
13463;SDS011;6804;48.774;9.174;2023-04-30T15:07:04;10.80;;;8.80;;
13463;SDS011;6804;48.774;9.174;2023-04-30T15:09:35;8.70;;;6.73;;
13463;SDS011;6804;48.774;9.174;2023-04-30T15:12:05;8.43;;;6.47;;
13463;SDS011;6804;48.774;9.174;2023-04-30T15:14:33;4.90;;;3.63;;
13463;SDS011;6804;48.774;9.174;2023-04-30T15:17:06;5.07;;;2.83;;
13463;SDS011;6804;48.774;9.174;2023-04-30T15:19:35;7.57;;;5.33;;
13463;SDS011;6804;48.774;9.174;2023-04-30T15:22:02;6.93;;;5.93;;